Aérodrome :
LOGIN :

S'inscrire | Disclaimer

   EN    FR    IT 

 










Légende :    VFR   VFR Marginal   IFR   IFR Intensif   IFR Très Intensif
Visi : 
Plafond : 
>= 8 km
>= 3000ft
5 à 8 km
1000 à 3000 ft
1500m à 5 km
500 à 1000 ft
800 à 1500m
200 à 500 ft
< 800m
< 200 ft
Symboles :   Orages  Brouillard  Fortes neiges  Fortes précipitations  Vent > 20 kt
SIGMETs :   Divers  Orages  Givrage  Turbulence  Onde Orograph.  Cendres Volcan.







- Altitude de l'aérodrome : 364 ft
- Code IATA : FRA


EDDF - Frankfurt Int.

DERNIER METAR :
  • 271320Z VRB08KT CAVOK 29/14 Q1018 NOSIG

METARs EXPIRÉS :
  • 271250Z 11009KT 070V160 CAVOK 28/13 Q1018 NOSIG
  • 271220Z 08011KT 050V110 CAVOK 28/13 Q1018 NOSIG
  • 271150Z 09011KT 060V130 CAVOK 27/12 Q1019 NOSIG
  • 271120Z 10007KT 030V160 CAVOK 27/12 Q1019 NOSIG
  • 271050Z 09009KT 060V120 CAVOK 27/11 Q1019 NOSIG

TAF TAF EDDF
Valide du 27 à 12h jusqu'au 28 à 18h UTC


271100Z 2712/2818 12007KT CAVOK
BECMG 2718/2720 05004KT
BECMG 2808/2810 19005KT
Pas de NOTAMs connus pour ce terrain.



MET'MAP, la Météo Aéronautique d'un coup d'oeil ! - Copyright ORBIFLY Décembre 2007 - Disclaimer

ORBIFLY MET'MAP TEAM :

Programmation & Développement : Alexandra Zaïnal
Conception & Développement : Baudouin d'Aumeries
Co-Programmation & Développement : Marc-Olivier Méhu
Soutien technique & logistique : Manuel Goepfert

Contact : metmap@orbifly.com




SOURCES & CREDITS :

   NOAA